Time;durP1;ratioP1;P1;durP2;ratioP2;P2;SDS_P1;SDS_P2;PMS_P1;PMS_P2;Temp;Humidity;BMP_temperature;BMP_pressure;BME280_temperature;BME280_humidity;BME280_pressure;Samples;Min_cycle;Max_cycle;Signal;HPM_P1;HPM_P2
2022/12/29 00:00:00;;;;;;;3.50;1.77;;;;;;;8.97;100.00;100017.97;6184447;23;20001;-89
2022/12/29 00:02:25;;;;;;;2.63;1.60;;;;;;;8.97;100.00;100018.81;6183782;23;20425;-89
2022/12/29 00:04:50;;;;;;;2.47;1.30;;;;;;;8.97;100.00;100012.63;6183823;23;20005;-89
2022/12/29 00:07:17;;;;;;;3.40;1.00;;;;;;;8.97;100.00;100009.97;6183816;23;19997;-89
2022/12/29 00:09:42;;;;;;;1.37;0.77;;;;;;;8.96;100.00;100006.50;6183344;23;20059;-90
2022/12/29 00:12:07;;;;;;;2.00;0.60;;;;;;;8.96;100.00;100003.84;6185940;23;20228;-89
2022/12/29 00:17:16;;;;;;;1.17;0.70;;;;;;;8.83;100.00;99986.47;6184547;23;20016;-89
2022/12/29 00:36:17;;;;;;;0.70;0.60;;;;;;;8.46;100.00;99972.25;6182144;23;20067;-89
2022/12/29 00:44:19;;;;;;;1.47;0.60;;;;;;;8.36;100.00;99950.84;6183239;23;20503;-88
2022/12/29 00:46:45;;;;;;;3.33;0.75;;;;;;;8.37;100.00;99957.00;6182803;23;20005;-89
2022/12/29 00:49:30;;;;;;;5.10;0.90;;;;;;;8.38;100.00;99959.41;6182672;23;20080;-89
2022/12/29 00:52:00;;;;;;;1.45;0.90;;;;;;;8.40;100.00;99959.16;6182684;23;20012;-88
2022/12/29 00:54:28;;;;;;;3.83;1.20;;;;;;;8.40;100.00;99951.16;6182934;23;20501;-89
2022/12/29 00:56:53;;;;;;;2.03;1.60;;;;;;;8.43;100.00;99940.72;6183488;23;20075;-88
2022/12/29 00:59:20;;;;;;;4.40;1.97;;;;;;;8.48;100.00;99945.31;6183141;23;20410;-89
2022/12/29 01:01:46;;;;;;;3.08;2.17;;;;;;;8.52;100.00;99925.03;6181341;23;20005;-89
2022/12/29 01:04:12;;;;;;;2.30;2.08;;;;;;;8.55;100.00;99926.34;6181628;23;20445;-89
2022/12/29 01:06:40;;;;;;;3.00;2.55;;;;;;;8.57;100.00;99929.56;6181985;23;20080;-89
2022/12/29 01:11:50;;;;;;;3.00;2.20;;;;;;;8.62;100.00;99926.91;6181118;23;20248;-88
2022/12/29 01:14:16;;;;;;;2.67;2.15;;;;;;;8.59;100.00;99917.53;6182457;23;20005;-89
2022/12/29 01:16:42;;;;;;;5.60;1.85;;;;;;;8.59;100.00;99914.84;6182571;23;20005;-89
2022/12/29 01:19:07;;;;;;;3.07;1.80;;;;;;;8.55;100.00;99921.81;6182080;23;20055;-89
2022/12/29 01:21:33;;;;;;;7.10;1.87;;;;;;;8.55;100.00;99915.66;6180846;23;20493;-89
2022/12/29 01:23:58;;;;;;;2.92;1.73;;;;;;;8.53;100.00;99917.78;6181904;23;20055;-89
2022/12/29 01:26:23;;;;;;;2.33;1.70;;;;;;;8.58;100.00;99913.25;6181945;23;20008;-89
2022/12/29 01:28:49;;;;;;;3.37;1.70;;;;;;;8.53;100.00;99910.59;6182907;23;20015;-89
2022/12/29 01:31:15;;;;;;;2.40;1.23;;;;;;;8.47;100.00;99906.28;6181392;23;20033;-89
2022/12/29 01:33:42;;;;;;;4.13;1.40;;;;;;;8.47;100.00;99914.28;6183538;23;20052;-89
2022/12/29 01:36:14;;;;;;;3.22;1.23;;;;;;;8.47;100.00;99898.28;6182728;23;20005;-89
2022/12/29 01:38:40;;;;;;;3.30;1.17;;;;;;;8.45;100.00;99901.22;6182797;23;20091;-89
2022/12/29 01:41:07;;;;;;;1.40;0.90;;;;;;;8.43;100.00;99898.00;6154181;23;20012;-89
2022/12/29 01:43:41;;;;;;;2.03;0.80;;;;;;;8.42;100.00;99900.94;6181235;23;20013;-90
2022/12/29 01:46:39;;;;;;;2.50;1.20;;;;;;;8.53;100.00;99904.44;6181390;23;20240;-89
2022/12/29 01:49:07;;;;;;;2.08;1.10;;;;;;;8.63;100.00;99913.25;6182922;23;20007;-89
2022/12/29 01:51:38;;;;;;;3.67;1.45;;;;;;;8.71;100.00;99911.13;6180194;23;20016;-89
2022/12/29 01:54:11;;;;;;;2.95;0.90;;;;;;;8.76;100.00;99911.94;6182413;23;20001;-89
2022/12/29 01:56:36;;;;;;;1.67;0.68;;;;;;;8.78;100.00;99904.47;6181192;23;20036;-89
2022/12/29 01:59:11;;;;;;;4.00;0.90;;;;;;;8.83;100.00;99900.19;6182221;23;20005;-89
2022/12/29 02:01:36;;;;;;;5.30;0.80;;;;;;;8.82;100.00;99902.03;6180451;23;20076;-89
2022/12/29 02:04:02;;;;;;;3.67;0.70;;;;;;;8.87;100.00;99902.03;6182026;23;20037;-89
2022/12/29 02:06:32;;;;;;;1.90;0.70;;;;;;;8.96;100.00;99898.81;6181685;23;20013;-88
2022/12/29 02:08:58;;;;;;;2.87;0.73;;;;;;;8.99;100.00;99912.44;6181394;23;20009;-89
2022/12/29 02:11:26;;;;;;;3.90;1.07;;;;;;;9.01;100.00;99902.31;6181393;23;20244;-89
2022/12/29 02:13:52;;;;;;;3.10;0.55;;;;;;;8.97;100.00;99889.72;6181568;23;20008;-88
2022/12/29 02:16:37;;;;;;;3.40;0.70;;;;;;;9.05;100.00;99894.53;6182149;23;20028;-89
2022/12/29 02:19:12;;;;;;;2.93;0.67;;;;;;;9.05;100.00;99903.34;6181755;23;20430;-88
2022/12/29 02:21:58;;;;;;;1.27;0.60;;;;;;;9.07;100.00;99914.56;6180339;23;20260;-87
2022/12/29 02:24:58;;;;;;;4.97;0.77;;;;;;;9.10;100.00;99905.22;6182101;23;20000;-88
2022/12/29 02:27:45;;;;;;;2.08;0.65;;;;;;;9.12;100.00;99905.75;6182143;23;20001;-89
2022/12/29 02:30:44;;;;;;;1.55;0.60;;;;;;;9.14;100.00;99898.25;6180149;23;20001;-89
2022/12/29 02:33:32;;;;;;;1.42;0.60;;;;;;;9.14;100.00;99897.47;6181584;23;20013;-89
2022/12/29 02:36:09;;;;;;;4.75;0.50;;;;;;;9.13;100.00;99874.47;6171828;23;20429;-89
2022/12/29 02:38:54;;;;;;;3.10;0.83;;;;;;;9.16;100.00;99887.31;6181122;23;20509;-88
2022/12/29 02:41:29;;;;;;;3.65;0.70;;;;;;;9.14;100.00;99882.22;6181169;23;20005;-89
2022/12/29 02:44:06;;;;;;;1.60;0.65;;;;;;;9.19;100.00;99881.41;6181633;23;20005;-89
2022/12/29 02:46:46;;;;;;;6.18;0.90;;;;;;;9.16;100.00;99874.72;6181017;23;20036;-89
2022/12/29 02:49:19;;;;;;;1.95;0.60;;;;;;;9.19;100.00;99881.41;6182254;23;20009;-89
2022/12/29 02:51:59;;;;;;;4.13;0.50;;;;;;;9.13;100.00;99888.63;6181065;23;20005;-89
2022/12/29 02:54:59;;;;;;;1.00;0.60;;;;;;;9.10;100.00;99875.81;6182311;23;20243;-89
2022/12/29 02:57:20;;;;;;;2.55;0.70;;;;;;;9.12;100.00;99880.88;6178046;23;20005;-89
2022/12/29 02:59:51;;;;;;;1.90;0.50;;;;;;;9.12;100.00;99871.00;6181446;23;20016;-89
2022/12/29 03:02:28;;;;;;;2.25;0.60;;;;;;;9.06;100.00;99870.19;6178851;23;20076;-89
2022/12/29 03:05:14;;;;;;;2.83;0.60;;;;;;;8.99;100.00;99869.69;6179570;23;20009;-89
2022/12/29 03:08:04;;;;;;;1.20;0.50;;;;;;;8.97;100.00;99858.47;6181452;23;20434;-89
2022/12/29 03:10:29;;;;;;;0.93;0.50;;;;;;;8.93;100.00;99852.06;6180539;23;20240;-89
2022/12/29 03:16:19;;;;;;;0.60;0.50;;;;;;;8.85;100.00;99864.09;6178621;23;20263;-90
2022/12/29 03:18:54;;;;;;;2.78;0.40;;;;;;;8.83;100.00;99855.56;6179417;23;20032;-90
2022/12/29 03:24:27;;;;;;;3.72;1.02;;;;;;;8.84;100.00;99859.84;6180853;23;20067;-90
2022/12/29 03:26:56;;;;;;;2.92;0.60;;;;;;;8.89;100.00;99862.50;6181223;23;20005;-90
2022/12/29 03:29:22;;;;;;;2.30;0.63;;;;;;;8.91;100.00;99863.03;6181866;23;20037;-90
2022/12/29 03:31:51;;;;;;;3.23;0.77;;;;;;;8.92;100.00;99855.81;6181218;23;20013;-90
2022/12/29 03:34:20;;;;;;;1.73;0.70;;;;;;;8.94;100.00;99851.81;6180820;23;20237;-89
2022/12/29 03:36:55;;;;;;;1.95;0.70;;;;;;;8.95;100.00;99849.94;6181351;23;20011;-89
2022/12/29 03:39:23;;;;;;;3.17;0.50;;;;;;;8.94;100.00;99849.16;6182357;23;20009;-89
2022/12/29 03:41:52;;;;;;;2.35;0.80;;;;;;;8.87;100.00;99845.13;6180189;23;20017;-90
2022/12/29 03:44:18;;;;;;;3.60;0.90;;;;;;;8.74;100.00;99859.84;6181550;23;20008;-90
2022/12/29 03:46:43;;;;;;;3.40;1.07;;;;;;;8.68;100.00;99835.00;6180783;23;20310;-89
2022/12/29 03:49:08;;;;;;;3.23;0.70;;;;;;;8.59;100.00;99855.31;6180846;23;20011;-89
2022/12/29 03:51:34;;;;;;;2.20;0.50;;;;;;;8.50;100.00;99852.38;6153989;23;20016;-90
2022/12/29 03:53:59;;;;;;;3.13;0.40;;;;;;;8.37;100.00;99835.00;6181792;23;20005;-90
2022/12/29 03:56:24;;;;;;;2.33;0.60;;;;;;;8.33;100.00;99866.78;6182336;23;20451;-89
2022/12/29 03:58:50;;;;;;;4.97;0.60;;;;;;;8.38;100.00;99838.50;6182865;23;20047;-89
2022/12/29 04:01:15;;;;;;;3.47;0.70;;;;;;;8.48;100.00;99859.88;6155682;23;20004;-89
2022/12/29 04:03:40;;;;;;;4.50;0.67;;;;;;;8.52;100.00;99866.28;6182916;23;20318;-89
2022/12/29 04:06:07;;;;;;;3.23;0.80;;;;;;;8.57;100.00;99876.97;6182879;23;20000;-89
2022/12/29 04:08:32;;;;;;;2.13;0.82;;;;;;;8.54;100.00;99866.81;6182807;23;20001;-89
2022/12/29 04:10:58;;;;;;;3.30;0.70;;;;;;;8.53;100.00;99865.22;6182614;23;20020;-89
2022/12/29 04:13:23;;;;;;;4.57;0.70;;;;;;;8.53;100.00;99856.38;6182568;23;20001;-88
2022/12/29 04:15:48;;;;;;;6.13;0.70;;;;;;;8.40;100.00;99845.16;6183017;23;20032;-88
2022/12/29 04:18:14;;;;;;;4.57;0.60;;;;;;;8.34;100.00;99875.56;6182867;23;20024;-88
2022/12/29 04:23:23;;;;;;;4.60;1.00;;;;;;;8.12;100.00;99897.97;6181834;23;20067;-88
2022/12/29 04:25:48;;;;;;;6.37;0.77;;;;;;;8.12;100.00;99913.19;6184573;23;20005;-89
2022/12/29 04:28:14;;;;;;;4.67;0.40;;;;;;;8.12;100.00;99902.50;6182633;23;20065;-89
2022/12/29 04:30:43;;;;;;;3.40;0.60;;;;;;;8.06;100.00;99904.38;6180897;23;20001;-89
2022/12/29 04:33:08;;;;;;;4.40;0.70;;;;;;;8.00;100.00;99892.06;6182281;23;20096;-89
2022/12/29 04:35:34;;;;;;;5.68;0.55;;;;;;;7.93;100.00;99884.31;6181762;23;20060;-89
2022/12/29 04:37:59;;;;;;;2.93;0.57;;;;;;;7.91;100.00;99891.78;6182901;23;20051;-89
2022/12/29 04:40:24;;;;;;;8.03;0.70;;;;;;;7.86;100.00;99889.09;6181607;23;20005;-89
2022/12/29 04:42:50;;;;;;;5.95;0.80;;;;;;;7.83;100.00;99892.31;6182114;23;20059;-89
2022/12/29 04:45:16;;;;;;;2.53;0.50;;;;;;;7.82;100.00;99894.16;6182900;23;20011;-89
2022/12/29 04:47:41;;;;;;;5.83;0.90;;;;;;;7.89;100.00;99907.25;6182402;23;20011;-89
2022/12/29 04:50:07;;;;;;;3.23;0.57;;;;;;;7.81;100.00;99910.44;6182134;23;20331;-89
2022/12/29 04:52:32;;;;;;;3.57;0.70;;;;;;;7.74;100.00;99924.00;6182011;23;20001;-88
2022/12/29 04:54:58;;;;;;;4.38;0.57;;;;;;;7.75;100.00;99920.28;6181893;23;20009;-88
2022/12/29 04:57:23;;;;;;;4.57;1.10;;;;;;;7.74;100.00;99929.34;6181851;23;20009;-88
2022/12/29 04:59:48;;;;;;;4.40;0.60;;;;;;;7.62;100.00;99924.22;6182482;23;20009;-88
2022/12/29 05:02:14;;;;;;;7.80;0.90;;;;;;;7.64;100.00;99924.75;6182739;23;20020;-88
2022/12/29 05:04:39;;;;;;;5.50;0.70;;;;;;;7.64;100.00;99930.09;6181021;23;20039;-88
2022/12/29 05:07:04;;;;;;;8.40;1.23;;;;;;;7.55;100.00;99926.31;6183001;23;20001;-88
2022/12/29 05:09:30;;;;;;;6.17;1.20;;;;;;;7.54;100.00;99930.84;6181744;23;20009;-88
2022/12/29 05:11:55;;;;;;;4.83;0.70;;;;;;;7.50;100.00;99935.09;6181975;23;20059;-88
2022/12/29 05:14:21;;;;;;;9.90;1.40;;;;;;;7.39;100.00;99942.22;6182675;23;20421;-88
2022/12/29 05:16:46;;;;;;;6.13;0.90;;;;;;;7.43;100.00;99940.66;6181815;23;20010;-88
2022/12/29 05:19:12;;;;;;;10.40;1.23;;;;;;;7.42;100.00;99952.38;6182587;23;20318;-88
2022/12/29 05:21:37;;;;;;;4.67;0.83;;;;;;;7.36;100.00;99950.72;6180953;23;20008;-88
2022/12/29 05:24:02;;;;;;;10.67;1.13;;;;;;;7.38;100.00;99961.16;6182637;23;20085;-88
2022/12/29 05:26:28;;;;;;;5.63;0.90;;;;;;;7.40;100.00;99961.69;6182212;23;20019;-88
2022/12/29 05:28:53;;;;;;;7.93;0.97;;;;;;;7.53;100.00;99957.75;6183120;23;20016;-88
2022/12/29 05:31:19;;;;;;;7.37;1.10;;;;;;;7.68;100.00;99971.16;6181751;23;20013;-88
2022/12/29 05:33:44;;;;;;;4.13;0.73;;;;;;;7.76;100.00;99975.19;6182382;23;20012;-88
2022/12/29 05:36:10;;;;;;;5.30;0.80;;;;;;;7.80;100.00;99978.16;6181828;23;20240;-89
2022/12/29 05:38:35;;;;;;;5.90;0.77;;;;;;;7.84;100.00;99966.72;6182730;23;20008;-89
2022/12/29 05:41:01;;;;;;;4.60;0.60;;;;;;;7.88;100.00;99969.66;6182072;23;20001;-89
2022/12/29 05:43:26;;;;;;;7.03;0.70;;;;;;;7.94;100.00;99981.97;6181735;23;20083;-90
2022/12/29 05:45:52;;;;;;;5.97;0.60;;;;;;;7.91;100.00;99985.16;6181156;23;20012;-89
2022/12/29 05:48:17;;;;;;;7.70;0.73;;;;;;;7.90;100.00;99982.75;6181899;23;20468;-88
2022/12/29 05:50:47;;;;;;;4.63;0.80;;;;;;;7.93;100.00;99985.69;6181236;23;20055;-89
2022/12/29 05:53:13;;;;;;;3.85;0.80;;;;;;;7.96;100.00;99985.16;6181741;23;20028;-89
2022/12/29 05:55:38;;;;;;;6.07;0.80;;;;;;;7.98;100.00;99988.38;6181942;23;20433;-89
2022/12/29 05:58:03;;;;;;;4.30;0.70;;;;;;;8.02;100.00;99986.81;6182634;23;20008;-88
2022/12/29 06:00:28;;;;;;;7.53;0.87;;;;;;;8.07;100.00;99998.53;6181150;23;20001;-88
2022/12/29 06:02:54;;;;;;;4.75;0.60;;;;;;;8.18;100.00;99992.19;6181493;23;20005;-89
2022/12/29 06:05:20;;;;;;;4.37;1.00;;;;;;;8.21;100.00;99997.00;6180135;23;20660;-87
2022/12/29 06:07:45;;;;;;;3.63;0.90;;;;;;;8.30;100.00;99994.63;6181206;23;20001;-88
2022/12/29 06:10:10;;;;;;;6.93;0.90;;;;;;;8.36;100.00;100008.78;6154056;23;20501;-89
2022/12/29 06:12:35;;;;;;;5.18;0.60;;;;;;;8.37;100.00;100005.06;6181577;23;20027;-88
2022/12/29 06:15:01;;;;;;;2.83;0.60;;;;;;;8.36;100.00;100017.59;6180982;23;20436;-88
2022/12/29 06:17:26;;;;;;;6.27;0.77;;;;;;;8.35;100.00;100005.31;6181332;23;20005;-89
2022/12/29 06:19:52;;;;;;;4.80;0.80;;;;;;;8.35;100.00;100007.97;6180614;23;20001;-88
2022/12/29 06:22:17;;;;;;;4.87;0.60;;;;;;;8.39;100.00;100005.59;6181320;23;20055;-89
2022/12/29 06:24:42;;;;;;;7.18;0.60;;;;;;;8.37;100.00;99992.50;6180687;23;20093;-88
2022/12/29 06:27:07;;;;;;;5.07;0.77;;;;;;;8.37;100.00;99986.38;6181383;23;20004;-88
2022/12/29 06:29:34;;;;;;;3.83;0.90;;;;;;;8.42;100.00;99986.38;6179757;23;20013;-88
2022/12/29 06:32:00;;;;;;;2.90;0.73;;;;;;;8.43;100.00;99999.47;6180162;23;20036;-88
2022/12/29 06:34:25;;;;;;;3.20;0.80;;;;;;;8.38;100.00;99988.78;6181551;23;20570;-89
2022/12/29 06:36:51;;;;;;;6.67;0.70;;;;;;;8.26;100.00;99991.66;6181370;23;20011;-89
2022/12/29 06:39:16;;;;;;;4.72;0.77;;;;;;;8.12;100.00;99990.56;6180597;23;20001;-89
2022/12/29 06:41:41;;;;;;;6.20;0.90;;;;;;;8.08;100.00;99968.94;6179646;23;20528;-88
2022/12/29 06:44:06;;;;;;;9.07;1.03;;;;;;;8.10;100.00;99968.66;6180686;23;20005;-89
2022/12/29 06:46:32;;;;;;;6.60;0.67;;;;;;;8.08;100.00;99986.81;6181070;23;20001;-90
2022/12/29 06:48:57;;;;;;;3.47;0.63;;;;;;;8.06;100.00;99978.25;6179973;23;20456;-90
2022/12/29 06:51:22;;;;;;;5.30;0.93;;;;;;;8.04;100.00;99991.88;6180127;23;20008;-88
2022/12/29 06:53:48;;;;;;;5.83;0.90;;;;;;;8.00;100.00;99982.78;6180728;23;20020;-89
2022/12/29 06:56:13;;;;;;;8.87;0.90;;;;;;;7.95;100.00;99980.06;6181178;23;20013;-90
2022/12/29 06:58:38;;;;;;;6.65;0.95;;;;;;;7.96;100.00;99985.16;6180911;23;20008;-88
2022/12/29 07:01:04;;;;;;;3.00;1.00;;;;;;;7.93;100.00;99984.91;6179420;23;20004;-88
2022/12/29 07:03:29;;;;;;;6.00;1.00;;;;;;;7.86;100.00;99985.09;6181149;23;20028;-88
2022/12/29 07:05:54;;;;;;;6.97;0.97;;;;;;;7.92;100.00;99984.06;6181003;23;19997;-88
2022/12/29 07:08:20;;;;;;;6.70;1.17;;;;;;;7.97;100.00;100000.13;6181143;23;20009;-88
2022/12/29 07:10:46;;;;;;;5.85;1.10;;;;;;;8.07;100.00;100006.53;6179387;23;20426;-88
2022/12/29 07:13:11;;;;;;;7.05;0.75;;;;;;;8.18;100.00;99997.53;6181076;23;20001;-88
2022/12/29 07:15:37;;;;;;;5.67;0.90;;;;;;;8.24;100.00;100015.16;6181150;23;20440;-88
2022/12/29 07:18:03;;;;;;;8.33;0.87;;;;;;;8.22;100.00;100003.94;6180100;23;20001;-88
2022/12/29 07:20:29;;;;;;;6.93;1.15;;;;;;;8.22;100.00;100024.50;6180145;23;20016;-87
2022/12/29 07:22:54;;;;;;;7.93;1.23;;;;;;;8.22;100.00;100024.50;6180565;23;20586;-88
2022/12/29 07:25:20;;;;;;;7.73;0.70;;;;;;;8.23;100.00;100026.09;6180515;23;20076;-88
2022/12/29 07:27:45;;;;;;;7.50;1.00;;;;;;;8.27;100.00;100029.84;6181403;23;20063;-88
2022/12/29 07:30:11;;;;;;;6.47;1.13;;;;;;;8.34;100.00;100044.56;6181779;23;20005;-88
2022/12/29 07:32:36;;;;;;;10.43;1.20;;;;;;;8.36;100.00;100046.94;6181881;23;20385;-88
2022/12/29 07:35:02;;;;;;;7.17;1.10;;;;;;;8.27;100.00;100054.66;6183460;23;20084;-88
2022/12/29 07:37:27;;;;;;;12.02;1.27;;;;;;;8.16;100.00;100055.69;6183359;23;20009;-89
2022/12/29 07:39:53;;;;;;;6.23;1.30;;;;;;;8.05;100.00;100044.16;6182085;23;20040;-88
2022/12/29 07:42:18;;;;;;;7.23;1.03;;;;;;;8.04;100.00;100048.69;6182937;23;20036;-88
2022/12/29 07:44:43;;;;;;;10.60;1.50;;;;;;;8.09;100.00;100047.13;6181553;23;20005;-88
2022/12/29 07:47:09;;;;;;;7.55;1.13;;;;;;;8.11;100.00;100053.00;6182879;23;20401;-89
2022/12/29 07:49:34;;;;;;;14.30;1.27;;;;;;;8.21;100.00;100053.06;6182715;23;20013;-89
2022/12/29 07:52:00;;;;;;;9.47;1.43;;;;;;;8.27;100.00;100041.31;6182528;23;20044;-89
2022/12/29 07:54:25;;;;;;;6.83;1.10;;;;;;;8.37;100.00;100050.44;6182744;23;20088;-88
2022/12/29 07:56:51;;;;;;;6.03;0.73;;;;;;;8.40;100.00;100049.94;6181555;23;20042;-89
2022/12/29 07:59:16;;;;;;;8.40;1.60;;;;;;;8.43;100.00;100046.69;6183155;23;20005;-89
2022/12/29 08:01:41;;;;;;;8.05;1.10;;;;;;;8.49;100.00;100061.72;6181591;23;20013;-89
2022/12/29 08:04:07;;;;;;;11.43;1.10;;;;;;;8.51;100.00;100050.75;6183433;23;20013;-89
2022/12/29 08:06:32;;;;;;;10.47;1.43;;;;;;;8.49;100.00;100046.47;6184456;23;20009;-89
2022/12/29 08:08:58;;;;;;;10.53;1.30;;;;;;;8.48;100.00;100058.25;6184890;23;20005;-89
2022/12/29 08:11:24;;;;;;;8.33;1.10;;;;;;;8.53;100.00;100061.97;6186693;23;20004;-89
2022/12/29 08:13:50;;;;;;;10.10;1.00;;;;;;;8.55;100.00;100066.03;6185016;23;20243;-89
2022/12/29 08:16:15;;;;;;;9.27;1.10;;;;;;;8.55;100.00;100065.19;6183025;23;20016;-88
2022/12/29 08:18:41;;;;;;;8.60;1.33;;;;;;;8.59;100.00;100051.06;6184585;23;20012;-89
2022/12/29 08:21:06;;;;;;;11.90;1.10;;;;;;;8.53;100.00;100068.16;6184934;23;20005;-89
2022/12/29 08:23:31;;;;;;;11.63;1.40;;;;;;;8.44;100.00;100075.00;6183010;23;20237;-88
2022/12/29 08:26:01;;;;;;;7.60;0.93;;;;;;;8.39;100.00;100067.00;6183243;23;20036;-88
2022/12/29 08:28:26;;;;;;;9.40;0.90;;;;;;;8.36;100.00;100070.19;6184207;23;20009;-89
2022/12/29 08:30:52;;;;;;;6.83;1.23;;;;;;;8.34;100.00;100065.09;6182345;23;20012;-88
2022/12/29 08:33:18;;;;;;;6.60;1.20;;;;;;;8.35;100.00;100077.38;6182588;23;20092;-88
2022/12/29 08:35:44;;;;;;;9.57;1.03;;;;;;;8.36;100.00;100081.66;6182084;23;20013;-88
2022/12/29 08:38:13;;;;;;;7.15;1.10;;;;;;;8.43;100.00;100084.09;6181732;23;20005;-88
2022/12/29 08:40:38;;;;;;;8.50;1.00;;;;;;;8.57;100.00;100077.25;6180934;23;20009;-88
2022/12/29 08:43:03;;;;;;;6.93;1.10;;;;;;;8.67;100.00;100076.47;6181103;23;20788;-87
2022/12/29 08:45:29;;;;;;;8.50;1.20;;;;;;;8.75;100.00;100086.63;6182558;23;20005;-87
2022/12/29 08:47:54;;;;;;;12.93;1.10;;;;;;;8.81;100.00;100068.72;6180662;23;20009;-88
2022/12/29 08:50:19;;;;;;;10.23;1.10;;;;;;;8.83;100.00;100071.16;6180879;23;20433;-88
2022/12/29 08:52:44;;;;;;;10.67;1.10;;;;;;;8.97;100.00;100074.09;6182233;23;20005;-87
2022/12/29 08:55:10;;;;;;;6.63;0.90;;;;;;;9.07;100.00;100103.53;6182453;23;20012;-89
2022/12/29 08:57:35;;;;;;;10.07;1.17;;;;;;;9.14;100.00;100082.66;6179328;23;20037;-88
2022/12/29 09:00:01;;;;;;;9.98;1.15;;;;;;;9.14;100.00;100080.00;6181074;23;20013;-88
2022/12/29 09:02:26;;;;;;;10.33;0.93;;;;;;;9.15;100.00;100080.81;6181988;23;20086;-88
2022/12/29 09:04:57;;;;;;;8.98;0.80;;;;;;;9.09;100.00;100077.34;6182472;23;20001;-89
2022/12/29 09:07:23;;;;;;;8.30;1.20;;;;;;;9.10;100.00;100084.28;6182139;23;20325;-90
2022/12/29 09:09:48;;;;;;;9.85;1.17;;;;;;;9.11;100.00;100083.22;6181193;23;20028;-90
2022/12/29 09:12:17;;;;;;;9.37;1.53;;;;;;;9.15;100.00;100097.63;6181019;23;20005;-90
2022/12/29 09:14:44;;;;;;;8.00;1.10;;;;;;;9.18;100.00;100086.41;6182177;23;20080;-90
2022/12/29 09:19:53;;;;;;;7.65;1.02;;;;;;;9.18;100.00;100086.41;6181610;23;20073;-89
2022/12/29 09:22:18;;;;;;;10.80;1.30;;;;;;;9.15;100.00;100104.88;6181807;23;20115;-88
2022/12/29 09:24:44;;;;;;;6.90;1.00;;;;;;;9.16;100.00;100106.47;6181070;23;20001;-88
2022/12/29 09:27:09;;;;;;;6.30;1.00;;;;;;;9.15;100.00;100097.63;6181009;23;20020;-88
2022/12/29 09:30:01;;;;;;;6.73;1.20;;;;;;;9.03;100.00;100107.78;6181331;23;20005;-88
2022/12/29 09:32:26;;;;;;;5.18;1.08;;;;;;;8.89;100.00;100119.00;6174661;23;20020;-88
2022/12/29 09:34:51;;;;;;;7.87;1.10;;;;;;;8.85;100.00;100106.44;6181984;23;20376;-89
2022/12/29 09:37:17;;;;;;;12.77;1.37;;;;;;;8.85;100.00;100123.25;6181364;23;20445;-88
2022/12/29 09:39:42;;;;;;;13.83;1.70;;;;;;;8.78;100.00;100133.38;6180508;23;20036;-88
2022/12/29 09:42:14;;;;;;;11.57;1.20;;;;;;;8.76;100.00;100125.63;6181565;23;20012;-89
2022/12/29 09:45:08;;;;;;;8.23;0.90;;;;;;;8.85;100.00;100136.59;6181608;23;20017;-89
2022/12/29 09:47:34;;;;;;;5.63;0.90;;;;;;;8.86;100.00;100134.72;6180958;23;20228;-88
2022/12/29 09:50:30;;;;;;;9.95;1.30;;;;;;;8.96;100.00;100139.28;6181257;23;20139;-88
2022/12/29 09:53:18;;;;;;;10.15;1.50;;;;;;;9.05;100.00;100143.06;6155061;23;20028;-88
2022/12/29 09:55:57;;;;;;;7.70;1.38;;;;;;;9.09;100.00;100150.28;6181483;23;20036;-89
2022/12/29 09:58:41;;;;;;;8.85;0.90;;;;;;;9.10;100.00;100153.78;6181680;23;20009;-89
2022/12/29 10:01:16;;;;;;;8.53;1.57;;;;;;;8.96;100.00;100163.34;6181084;23;20027;-88
2022/12/29 10:03:48;;;;;;;7.87;1.43;;;;;;;8.73;100.00;100162.75;6182430;23;20255;-89
2022/12/29 10:06:45;;;;;;;7.22;1.15;;;;;;;8.65;100.00;100177.41;6181781;23;20016;-88
2022/12/29 10:09:36;;;;;;;7.88;1.40;;;;;;;8.66;100.00;100178.22;6181118;23;20011;-90
2022/12/29 10:12:20;;;;;;;9.85;1.10;;;;;;;8.67;100.00;100183.31;6175735;23;20019;-90
2022/12/29 10:15:13;;;;;;;7.10;1.00;;;;;;;8.58;100.00;100199.00;6181265;23;20005;-89
2022/12/29 10:18:00;;;;;;;9.98;1.20;;;;;;;8.44;100.00;100195.97;6180688;23;20307;-90
2022/12/29 10:20:38;;;;;;;8.10;1.20;;;;;;;8.35;100.00;100202.84;6155231;23;20337;-90
2022/12/29 10:23:28;;;;;;;10.32;1.02;;;;;;;8.40;100.00;100216.25;6181366;23;20055;-89
2022/12/29 10:25:59;;;;;;;8.40;1.48;;;;;;;8.40;100.00;100216.25;6181034;23;20430;-88
2022/12/29 10:28:39;;;;;;;6.78;1.00;;;;;;;8.26;100.00;100207.88;6181688;23;20004;-89
2022/12/29 10:31:16;;;;;;;9.00;1.05;;;;;;;8.23;100.00;100213.72;6181587;23;20136;-92
2022/12/29 10:33:42;;;;;;;6.47;1.25;;;;;;;8.24;100.00;100219.88;6182535;23;20068;-91
2022/12/29 10:36:13;;;;;;;13.17;1.30;;;;;;;8.21;100.00;100231.06;6182076;23;20080;-92
2022/12/29 10:39:03;;;;;;;10.57;1.08;;;;;;;8.12;100.00;100207.53;6154745;23;20012;-91
2022/12/29 10:41:39;;;;;;;9.90;1.45;;;;;;;8.22;100.00;100238.78;6133881;23;20008;-91
2022/12/29 10:44:04;;;;;;;11.18;1.10;;;;;;;8.18;100.00;100237.72;6181507;23;20476;-90
2022/12/29 10:46:35;;;;;;;9.53;1.30;;;;;;;8.12;100.00;100238.72;6155280;23;20001;-89
2022/12/29 10:52:06;;;;;;;6.40;0.90;;;;;;;7.86;100.00;100242.00;6148546;23;20028;-93
2022/12/29 10:54:53;;;;;;;12.30;1.55;;;;;;;7.98;100.00;100259.69;6181689;23;20011;-91
2022/12/29 10:57:32;;;;;;;10.20;1.40;;;;;;;7.97;100.00;100264.25;6181841;23;20009;-93
2022/12/29 10:59:58;;;;;;;8.77;1.10;;;;;;;7.97;100.00;100253.56;6185085;23;20235;-91
2022/12/29 11:02:59;;;;;;;6.93;1.50;;;;;;;8.07;100.00;100260.03;6182254;23;20005;-91
2022/12/29 11:05:44;;;;;;;10.32;1.88;;;;;;;8.10;100.00;100283.56;6186045;23;20009;-91
2022/12/29 11:08:15;;;;;;;6.75;1.23;;;;;;;7.99;100.00;100274.66;6187340;23;20009;-91
2022/12/29 11:10:43;;;;;;;12.02;1.40;;;;;;;7.98;100.00;100281.88;6183949;23;20012;-92
2022/12/29 11:13:13;;;;;;;10.53;1.37;;;;;;;7.95;100.00;100282.38;6183600;23;20044;-92
2022/12/29 11:15:44;;;;;;;12.93;1.70;;;;;;;8.00;100.00;100284.28;6180122;23;20248;-92
2022/12/29 11:18:31;;;;;;;11.38;1.50;;;;;;;8.05;100.00;100289.66;6182182;23;20001;-94
2022/12/29 11:21:00;;;;;;;9.32;1.38;;;;;;;8.12;100.00;100295.59;6181006;23;20012;-93
2022/12/29 11:23:30;;;;;;;12.23;2.13;;;;;;;8.17;100.00;100294.84;6181841;23;20005;-93
2022/12/29 11:26:07;;;;;;;10.13;1.52;;;;;;;8.20;100.00;100297.00;6179337;23;20005;-93
2022/12/29 11:28:33;;;;;;;9.70;2.03;;;;;;;8.20;100.00;100291.66;6181205;23;20513;-94
2022/12/29 11:31:01;;;;;;;7.43;1.17;;;;;;;8.36;100.00;100303.25;6179486;23;20091;-93
2022/12/29 11:33:28;;;;;;;9.80;1.00;;;;;;;8.43;100.00;100308.34;6181388;23;20001;-92
2022/12/29 11:35:59;;;;;;;8.82;1.20;;;;;;;8.62;100.00;100312.25;6182002;23;20084;-92
2022/12/29 11:38:36;;;;;;;13.80;1.27;;;;;;;8.67;100.00;100311.50;6180805;23;20008;-92
2022/12/29 11:41:03;;;;;;;11.60;1.60;;;;;;;8.63;100.00;100310.41;6180786;23;20508;-93
2022/12/29 11:43:41;;;;;;;15.40;1.70;;;;;;;8.61;100.00;100324.00;6182802;23;20333;-92
2022/12/29 11:46:14;;;;;;;8.03;1.37;;;;;;;8.58;100.00;100318.38;6181103;23;20734;-92
2022/12/29 11:48:43;;;;;;;10.63;1.73;;;;;;;8.57;100.00;100320.25;6154152;23;20448;-92
2022/12/29 11:51:11;;;;;;;10.10;1.55;;;;;;;8.65;100.00;100316.31;6180546;23;20039;-92
2022/12/29 11:53:46;;;;;;;9.38;1.40;;;;;;;8.63;100.00;100326.44;6179817;22;20009;-92
2022/12/29 11:56:15;;;;;;;15.07;1.48;;;;;;;8.72;100.00;100330.22;6180928;23;20008;-93
2022/12/29 11:58:41;;;;;;;12.20;1.60;;;;;;;8.79;100.00;100324.66;6181539;23;20076;-92
2022/12/29 12:01:16;;;;;;;10.70;1.53;;;;;;;8.81;100.00;100313.72;6183380;23;20005;-92
2022/12/29 12:03:52;;;;;;;13.40;1.50;;;;;;;8.94;100.00;100322.09;6178950;23;20236;-91
2022/12/29 12:06:23;;;;;;;13.10;1.55;;;;;;;8.97;100.00;100323.44;6180303;23;20012;-91
2022/12/29 12:08:57;;;;;;;9.70;1.58;;;;;;;8.91;100.00;100313.78;6180943;23;20001;-93
2022/12/29 12:11:35;;;;;;;10.85;1.42;;;;;;;8.83;100.00;100325.75;6179697;23;20449;-94
2022/12/29 12:14:21;;;;;;;15.65;1.30;;;;;;;8.83;100.00;100327.63;6180111;23;20084;-96
2022/12/29 12:17:03;;;;;;;16.23;1.70;;;;;;;8.89;100.00;100338.09;6155690;23;20090;-95
2022/12/29 12:19:46;;;;;;;16.85;1.98;;;;;;;8.91;100.00;100325.28;6181801;23;20016;-96
2022/12/29 12:22:33;;;;;;;9.93;1.53;;;;;;;8.98;100.00;100329.56;6156128;23;20032;-95